Terminal Aerodrome Forecast
Issued by NWS Wilmington, OH

Current Version | Previous Version | Graphics & Text | Print | Product List | Glossary On
Versions: 1 2 3 4 5 6 7 8 9 10 11 12 13 14 15 16
274
FTUS41 KILN 211100
TAFCMH
TAF
KCMH 211137Z 2112/2212 02007KT P6SM OVC040
      TEMPO 2112/2115 BKN015
     FM211500 01008KT P6SM BKN015 OVC035
     FM220000 33010KT P6SM SCT040
     FM220600 28006KT P6SM FEW040=

USA.gov is the U.S. government's official web portal to all federal, state and local government web resources and services.